Time;durP1;ratioP1;P1;durP2;ratioP2;P2;SDS_P1;SDS_P2;PMS_P1;PMS_P2;Temp;Humidity;BMP_temperature;BMP_pressure;BME280_temperature;BME280_humidity;BME280_pressure;Samples;Min_cycle;Max_cycle;Signal;HPM_P1;HPM_P2
2021/12/29 00:00:02;;;;;;;37.47;7.43;;;13.40;99.90;;;12.65;100.00;100663.50;4153765;28;20121;-64
2021/12/29 00:02:03;;;;;;;41.40;7.03;;;13.40;99.90;;;12.69;100.00;100659.53;4154086;28;20033;-64
2021/12/29 00:04:04;;;;;;;30.00;8.63;;;13.40;99.90;;;12.72;100.00;100661.84;4153901;28;20025;-65
2021/12/29 00:06:05;;;;;;;30.27;6.38;;;13.50;99.90;;;12.69;100.00;100670.13;4153881;28;20489;-65
2021/12/29 00:08:06;;;;;;;23.20;6.57;;;13.40;99.90;;;12.67;100.00;100649.09;4153762;28;20057;-65
2021/12/29 00:10:08;;;;;;;26.42;6.00;;;13.40;99.90;;;12.69;100.00;100655.03;4156960;28;20084;-65
2021/12/29 00:12:11;;;;;;;26.00;4.88;;;13.40;99.90;;;12.72;100.00;100667.13;4168986;28;20028;-65
2021/12/29 00:14:11;;;;;;;15.70;4.28;;;13.40;99.90;;;12.66;100.00;100667.81;4159370;28;20026;-64
2021/12/29 00:16:12;;;;;;;18.02;4.35;;;13.40;99.90;;;12.70;100.00;100674.41;4153640;28;20030;-65
2021/12/29 00:18:13;;;;;;;13.43;3.45;;;13.40;99.90;;;12.57;100.00;100666.19;4154065;28;20041;-64
2021/12/29 00:20:19;;;;;;;13.02;3.28;;;13.30;99.90;;;12.53;100.00;100681.56;4153955;28;20041;-65
2021/12/29 00:22:20;;;;;;;10.10;2.30;;;13.30;99.90;;;12.52;100.00;100671.97;4164891;28;20029;-65
2021/12/29 00:24:21;;;;;;;9.13;2.92;;;13.30;99.90;;;12.46;100.00;100670.00;4154488;28;20026;-64
2021/12/29 00:26:22;;;;;;;10.05;2.30;;;13.30;99.90;;;12.44;100.00;100676.47;4152563;28;20033;-64
2021/12/29 00:28:23;;;;;;;12.15;3.17;;;13.20;99.90;;;12.51;100.00;100675.63;4153835;28;20025;-64
2021/12/29 00:30:24;;;;;;;7.97;2.03;;;13.20;99.90;;;12.49;100.00;100671.50;4153546;28;20096;-64
2021/12/29 00:32:27;;;;;;;9.70;2.20;;;13.20;99.90;;;12.41;100.00;100677.63;4153624;28;20061;-64
2021/12/29 00:34:28;;;;;;;3.00;1.98;;;13.20;99.90;;;12.41;100.00;100672.34;4153801;28;20022;-64
2021/12/29 00:36:29;;;;;;;7.10;2.13;;;13.10;99.90;;;12.41;100.00;100669.72;4152407;28;20033;-64
2021/12/29 00:38:30;;;;;;;6.93;2.65;;;13.10;99.90;;;12.39;100.00;100657.66;4153578;28;20034;-64
2021/12/29 00:40:31;;;;;;;6.90;2.30;;;13.10;99.90;;;12.44;100.00;100669.38;4153493;28;20030;-64
2021/12/29 00:42:32;;;;;;;9.20;1.92;;;13.20;99.90;;;12.41;100.00;100668.88;4156347;28;20025;-64
2021/12/29 00:44:34;;;;;;;9.13;2.13;;;13.10;99.90;;;12.45;100.00;100664.91;4168696;28;20029;-64
2021/12/29 00:46:39;;;;;;;5.40;2.13;;;13.10;99.90;;;12.42;100.00;100660.78;4168445;28;20034;-64
2021/12/29 00:48:43;;;;;;;9.35;1.98;;;13.10;99.90;;;12.44;100.00;100666.72;4168496;28;20025;-64
2021/12/29 00:50:44;;;;;;;6.78;1.88;;;13.20;99.90;;;12.43;100.00;100680.94;4164226;28;20061;-64
2021/12/29 00:52:47;;;;;;;8.02;2.30;;;13.10;99.90;;;12.37;100.00;100667.56;4153457;28;20113;-64
2021/12/29 00:54:49;;;;;;;4.53;2.30;;;13.30;99.90;;;12.38;100.00;100666.56;4153421;28;20037;-64
2021/12/29 00:56:50;;;;;;;10.95;3.45;;;13.20;99.90;;;12.48;100.00;100664.56;4166648;28;20033;-64
2021/12/29 00:58:50;;;;;;;11.82;2.85;;;13.10;99.90;;;12.39;100.00;100662.94;4168653;28;20057;-64
2021/12/29 01:00:52;;;;;;;15.93;3.10;;;13.20;99.90;;;12.34;100.00;100652.00;4161707;28;20033;-64
2021/12/29 01:02:53;;;;;;;11.73;3.70;;;13.20;99.90;;;12.39;100.00;100647.91;4163039;28;20714;-64
2021/12/29 01:04:54;;;;;;;11.75;4.03;;;13.20;99.90;;;12.40;100.00;100659.28;4168036;28;20095;-64
2021/12/29 01:06:55;;;;;;;10.23;3.05;;;13.20;99.90;;;12.39;100.00;100661.13;4168464;28;20040;-64
2021/12/29 01:08:56;;;;;;;14.45;3.97;;;13.10;99.90;;;12.38;100.00;100658.63;4169367;28;20032;-64
2021/12/29 01:10:57;;;;;;;9.48;3.35;;;13.20;99.90;;;12.41;100.00;100672.34;4157310;28;20128;-64
2021/12/29 01:13:01;;;;;;;10.35;3.38;;;13.20;99.90;;;12.38;100.00;100659.47;4167066;28;20044;-64
2021/12/29 01:15:03;;;;;;;17.10;3.33;;;13.20;99.90;;;12.39;100.00;100669.06;4169246;28;20040;-64
2021/12/29 01:17:04;;;;;;;13.02;3.03;;;13.20;99.90;;;12.40;100.00;100660.09;4169400;28;20034;-64
2021/12/29 01:19:14;;;;;;;14.93;3.40;;;13.20;99.90;;;12.38;100.00;100653.34;4157250;28;20053;-64
2021/12/29 01:21:15;;;;;;;8.20;2.63;;;13.20;99.90;;;12.45;100.00;100644.56;4151859;28;20482;-64
2021/12/29 01:23:16;;;;;;;8.65;2.15;;;13.20;99.90;;;12.41;100.00;100645.06;4156923;28;20057;-65
2021/12/29 01:25:18;;;;;;;5.35;1.83;;;13.20;99.90;;;12.39;100.00;100649.72;4160007;28;20038;-65
2021/12/29 01:27:19;;;;;;;7.95;2.28;;;13.20;99.90;;;12.43;100.00;100643.91;4151711;28;20406;-65
2021/12/29 01:29:20;;;;;;;10.45;1.95;;;13.20;99.90;;;12.42;100.00;100639.63;4167216;28;20033;-64
2021/12/29 01:31:21;;;;;;;7.70;2.15;;;13.20;99.90;;;12.45;100.00;100630.50;4163201;28;20036;-65
2021/12/29 01:33:22;;;;;;;2.45;1.40;;;13.20;99.90;;;12.46;100.00;100630.31;4151674;28;20109;-64
2021/12/29 01:35:23;;;;;;;6.47;1.88;;;14.00;99.90;;;12.48;100.00;100635.47;4163769;28;20029;-65
2021/12/29 01:37:24;;;;;;;5.32;1.52;;;13.30;99.90;;;12.49;100.00;100645.03;4169220;28;20025;-64
2021/12/29 01:39:25;;;;;;;3.05;1.42;;;13.30;99.90;;;12.45;100.00;100641.94;4169202;28;20025;-64
2021/12/29 01:41:26;;;;;;;5.70;1.55;;;13.20;99.90;;;12.46;100.00;100640.91;4169057;28;20029;-64
2021/12/29 01:43:27;;;;;;;4.55;1.90;;;13.20;99.90;;;12.48;100.00;100644.22;4169000;28;20108;-65
2021/12/29 01:45:28;;;;;;;9.13;1.60;;;13.20;99.90;;;12.41;100.00;100630.03;4168609;28;20049;-64
2021/12/29 01:47:32;;;;;;;4.85;1.70;;;13.30;99.90;;;12.45;100.00;100614.63;4163770;28;20080;-64
2021/12/29 01:49:33;;;;;;;9.35;1.90;;;13.30;99.90;;;12.45;100.00;100625.22;4151448;28;20034;-65
2021/12/29 01:51:35;;;;;;;2.63;1.40;;;13.20;99.90;;;12.52;100.00;100610.28;4151377;28;20033;-64
2021/12/29 01:53:46;;;;;;;1.67;1.02;;;13.20;99.90;;;12.59;100.00;100609.44;4151433;28;20501;-64
2021/12/29 01:55:47;;;;;;;6.22;1.30;;;13.30;99.90;;;12.54;100.00;100610.97;4158354;28;20026;-64
2021/12/29 01:57:48;;;;;;;3.20;1.33;;;13.20;99.90;;;12.53;100.00;100606.66;4158884;28;20461;-65
2021/12/29 01:59:49;;;;;;;2.67;1.27;;;13.30;99.90;;;12.51;100.00;100608.66;4164285;28;20032;-64
2021/12/29 02:01:50;;;;;;;2.47;1.75;;;13.30;99.90;;;12.52;100.00;100605.00;4168315;28;20021;-64
2021/12/29 02:03:55;;;;;;;3.50;1.30;;;13.20;99.90;;;12.46;100.00;100605.69;4162178;28;20062;-65
2021/12/29 02:05:56;;;;;;;1.85;1.13;;;13.20;99.90;;;12.53;100.00;100606.66;4152244;28;20045;-64
2021/12/29 02:07:57;;;;;;;1.42;0.90;;;13.20;99.90;;;12.51;100.00;100608.66;4164026;28;20033;-64
2021/12/29 02:09:58;;;;;;;2.42;1.40;;;13.30;99.90;;;12.53;100.00;100617.25;4167408;28;20108;-64
2021/12/29 02:12:00;;;;;;;1.60;1.05;;;13.20;99.90;;;12.51;100.00;100635.13;4167465;28;20499;-64
2021/12/29 02:14:05;;;;;;;1.98;0.93;;;13.30;99.90;;;12.56;100.00;100623.03;4157626;28;20056;-64
2021/12/29 02:16:07;;;;;;;2.42;1.10;;;13.30;99.90;;;12.48;100.00;100633.66;4164190;28;20026;-64
2021/12/29 02:18:14;;;;;;;4.38;1.27;;;13.20;99.90;;;12.47;100.00;100637.28;4164898;28;20030;-64
2021/12/29 02:20:18;;;;;;;3.20;1.30;;;13.20;99.90;;;12.47;100.00;100639.94;4158875;28;20026;-65
2021/12/29 02:24:42;;;;;;;2.13;1.20;;;13.20;99.90;;;12.47;100.00;100639.09;4152709;28;20091;-65
2021/12/29 02:26:44;;;;;;;3.40;1.20;;;13.20;99.90;;;12.41;100.00;100627.38;4152210;28;20512;-64
2021/12/29 02:28:45;;;;;;;2.75;1.10;;;13.20;99.90;;;12.43;100.00;100632.47;4152074;28;20038;-64
2021/12/29 02:30:47;;;;;;;2.58;1.33;;;13.10;99.90;;;12.44;100.00;100629.69;4165275;28;20021;-64
2021/12/29 02:32:49;;;;;;;4.35;1.40;;;13.20;99.90;;;12.46;100.00;100621.56;4167301;28;20026;-64
2021/12/29 02:34:50;;;;;;;2.50;1.48;;;13.20;99.90;;;12.44;100.00;100618.28;4160390;28;20053;-64
2021/12/29 02:36:51;;;;;;;4.03;1.23;;;13.20;99.90;;;12.45;100.00;100622.56;4152069;28;20033;-64
2021/12/29 02:38:55;;;;;;;5.00;1.30;;;13.20;99.90;;;12.50;100.00;100613.13;4165460;28;20057;-64
2021/12/29 02:41:04;;;;;;;2.50;1.20;;;13.20;99.90;;;12.46;100.00;100613.63;4163442;28;20137;-64
2021/12/29 02:43:07;;;;;;;3.15;1.45;;;13.20;99.90;;;12.49;100.00;100615.94;4152008;28;20104;-65
2021/12/29 02:45:13;;;;;;;1.90;1.42;;;13.20;99.90;;;12.48;100.00;100619.59;4151680;28;20042;-65
2021/12/29 02:47:14;;;;;;;2.95;1.13;;;13.20;99.90;;;12.49;100.00;100621.22;4151901;28;20029;-64
2021/12/29 02:49:15;;;;;;;5.22;1.58;;;13.20;99.90;;;12.48;100.00;100611.66;4162251;28;20095;-64
2021/12/29 02:51:16;;;;;;;3.92;1.30;;;13.20;99.90;;;12.50;100.00;100607.00;4171758;28;20028;-64
2021/12/29 02:53:17;;;;;;;4.60;1.65;;;13.30;99.90;;;12.53;100.00;100601.38;4171667;28;20037;-64
2021/12/29 02:55:18;;;;;;;4.47;1.67;;;13.30;99.90;;;12.51;100.00;100601.56;4171558;28;20025;-64
2021/12/29 02:57:19;;;;;;;5.25;1.85;;;13.20;99.90;;;12.50;100.00;100607.00;4164259;28;20084;-64
2021/12/29 02:59:22;;;;;;;4.82;1.50;;;13.30;99.90;;;12.52;100.00;100600.53;4154039;28;20073;-64
2021/12/29 03:01:24;;;;;;;6.57;2.13;;;13.20;99.90;;;12.53;100.00;100601.38;4167820;28;20099;-64
2021/12/29 03:03:27;;;;;;;3.97;1.65;;;13.30;99.90;;;12.55;100.00;100599.38;4154180;28;20037;-64
2021/12/29 03:05:28;;;;;;;3.13;1.60;;;13.30;99.90;;;12.57;100.00;100602.69;4159454;28;20045;-64
2021/12/29 03:07:29;;;;;;;10.98;1.85;;;13.30;99.90;;;12.55;100.00;100594.06;4171495;28;20493;-64
2021/12/29 03:09:30;;;;;;;6.13;1.90;;;13.30;99.90;;;12.59;100.00;100595.38;4171341;28;20121;-64
2021/12/29 03:11:32;;;;;;;10.48;2.22;;;13.30;99.90;;;12.55;100.00;100586.97;4154679;28;20026;-64
2021/12/29 03:13:36;;;;;;;6.18;1.50;;;13.30;99.90;;;12.59;100.00;100600.69;4153873;28;20152;-64
2021/12/29 03:15:38;;;;;;;6.60;1.90;;;13.30;99.90;;;12.57;100.00;100606.13;4153462;28;20113;-64
2021/12/29 03:17:39;;;;;;;5.63;2.53;;;13.30;99.90;;;12.55;100.00;100602.00;4137364;28;20037;-64
2021/12/29 03:19:40;;;;;;;7.00;1.85;;;13.40;99.90;;;12.58;100.00;100604.31;4170438;28;20053;-64
2021/12/29 03:21:41;;;;;;;6.93;2.35;;;13.30;99.90;;;12.54;100.00;100593.28;4165516;28;20101;-64
2021/12/29 03:23:43;;;;;;;8.27;2.83;;;13.40;99.90;;;12.50;100.00;100597.25;4162668;28;20039;-64
2021/12/29 03:25:47;;;;;;;7.50;2.17;;;13.30;99.90;;;12.52;100.00;100602.34;4158997;28;20029;-64
2021/12/29 03:27:49;;;;;;;14.05;3.03;;;13.30;99.90;;;12.55;100.00;100599.38;4154613;28;20050;-64
2021/12/29 03:29:50;;;;;;;12.38;2.90;;;13.30;99.90;;;12.56;100.00;100599.22;4159165;28;20025;-64
2021/12/29 03:31:51;;;;;;;12.25;3.38;;;13.30;99.90;;;12.55;100.00;100610.78;4162151;28;20501;-64
2021/12/29 03:33:52;;;;;;;20.42;3.13;;;13.30;99.90;;;12.59;100.00;100601.50;4154657;28;20026;-64
2021/12/29 03:36:04;;;;;;;13.52;3.25;;;13.30;99.90;;;12.57;100.00;100586.81;4168962;28;20112;-64
2021/12/29 03:38:09;;;;;;;13.43;3.38;;;13.30;99.90;;;12.61;100.00;100585.44;4163647;28;20072;-65
2021/12/29 03:40:10;;;;;;;9.88;2.33;;;13.30;99.90;;;12.62;100.00;100584.47;4164528;28;20099;-64
2021/12/29 03:42:11;;;;;;;9.95;2.10;;;13.40;99.90;;;12.63;100.00;100584.28;4156278;28;20037;-64
2021/12/29 03:44:12;;;;;;;8.70;3.17;;;13.40;99.90;;;12.66;100.00;100586.56;4157928;28;20026;-65
2021/12/29 03:46:15;;;;;;;8.43;2.10;;;13.40;99.90;;;12.66;100.00;100583.13;4169388;28;20087;-64
2021/12/29 03:48:18;;;;;;;7.60;1.85;;;13.40;99.90;;;12.64;100.00;100580.63;4169592;28;20026;-64
2021/12/29 03:50:19;;;;;;;5.10;1.83;;;13.40;99.90;;;12.65;100.00;100587.59;4169558;28;20022;-64
2021/12/29 03:52:20;;;;;;;3.78;1.70;;;13.40;99.90;;;12.67;100.00;100606.75;4169690;28;20033;-64
2021/12/29 03:54:20;;;;;;;6.72;2.00;;;13.40;99.90;;;12.69;100.00;100596.00;4169633;28;20105;-64
2021/12/29 03:56:21;;;;;;;6.85;1.60;;;13.40;99.90;;;12.70;100.00;100581.75;4159459;28;20054;-64
2021/12/29 03:58:26;;;;;;;7.57;2.55;;;13.50;99.90;;;12.73;100.00;100586.72;4154166;28;20069;-64
2021/12/29 04:00:28;;;;;;;3.72;1.92;;;13.50;99.90;;;12.71;100.00;100594.00;4154060;28;20026;-64
2021/12/29 04:02:28;;;;;;;4.70;1.70;;;13.40;99.90;;;12.72;100.00;100593.03;4154231;28;20037;-64
2021/12/29 04:04:30;;;;;;;7.55;2.58;;;13.50;99.90;;;12.74;100.00;100593.66;4154002;28;20042;-64
2021/12/29 04:06:30;;;;;;;2.72;1.13;;;13.50;99.90;;;12.74;100.00;100581.25;4166490;28;20179;-64
2021/12/29 04:08:32;;;;;;;4.32;1.20;;;13.50;99.90;;;12.80;100.00;100566.50;4158575;28;20063;-64
2021/12/29 04:10:33;;;;;;;2.75;1.58;;;13.50;99.90;;;12.81;100.00;100556.75;4161486;28;20586;-64
2021/12/29 04:12:34;;;;;;;4.72;1.38;;;13.50;99.90;;;12.80;100.00;100557.72;4165137;28;20026;-64
2021/12/29 04:14:35;;;;;;;6.68;1.73;;;13.50;99.90;;;12.80;100.00;100563.84;4170268;28;20429;-64
2021/12/29 04:16:40;;;;;;;3.17;1.23;;;13.50;99.90;;;12.81;100.00;100554.94;4170143;28;20024;-64
2021/12/29 04:18:55;;;;;;;3.92;1.17;;;13.60;99.90;;;12.83;100.00;100552.91;4161167;28;20033;-64
2021/12/29 04:21:02;;;;;;;3.70;1.60;;;13.60;99.90;;;12.88;100.00;100553.22;4166967;28;20029;-64
2021/12/29 04:23:07;;;;;;;2.97;1.20;;;13.60;99.90;;;12.90;100.00;100561.00;4165435;28;20041;-65
2021/12/29 04:25:08;;;;;;;3.63;1.30;;;13.60;99.90;;;12.89;100.00;100568.09;4136827;28;20029;-65
2021/12/29 04:27:09;;;;;;;4.15;1.25;;;13.60;99.90;;;12.92;100.00;100569.56;4164644;28;20034;-64
2021/12/29 04:29:13;;;;;;;4.18;1.58;;;13.60;99.90;;;12.98;100.00;100559.09;4170115;28;20398;-64
2021/12/29 04:31:14;;;;;;;9.35;2.10;;;13.70;99.90;;;12.98;100.00;100568.88;4168890;28;20017;-64
2021/12/29 04:33:16;;;;;;;7.15;1.40;;;13.70;99.90;;;12.98;100.00;100571.53;4161901;28;20032;-64
2021/12/29 04:35:17;;;;;;;3.70;1.58;;;13.70;99.90;;;12.97;100.00;100570.69;4152584;28;20026;-64
2021/12/29 04:37:18;;;;;;;6.72;1.77;;;13.70;99.90;;;13.04;100.00;100581.41;4166543;28;20030;-64
2021/12/29 04:39:19;;;;;;;6.35;2.10;;;13.70;99.90;;;13.00;100.00;100583.56;4170192;28;20029;-64
2021/12/29 04:41:21;;;;;;;7.22;2.33;;;13.80;99.90;;;13.08;100.00;100580.09;4161908;28;20488;-64
2021/12/29 04:43:24;;;;;;;13.85;2.83;;;13.80;99.90;;;13.05;100.00;100585.72;4152507;28;20036;-64
2021/12/29 04:45:26;;;;;;;11.98;2.95;;;13.80;99.90;;;13.03;100.00;100588.53;4152079;28;20421;-64
2021/12/29 04:47:29;;;;;;;9.82;2.38;;;13.80;99.90;;;13.07;100.00;100581.06;4156572;28;20424;-64
2021/12/29 04:49:39;;;;;;;14.30;3.78;;;13.80;99.90;;;13.06;100.00;100590.00;4168674;28;20487;-64
2021/12/29 04:51:56;;;;;;;14.63;3.33;;;13.80;99.90;;;13.08;100.00;100578.25;4169843;28;20120;-65
2021/12/29 04:53:57;;;;;;;16.30;4.38;;;13.80;99.90;;;13.10;100.00;100589.50;4156476;28;20028;-64
2021/12/29 04:55:58;;;;;;;14.45;4.50;;;13.90;99.90;;;13.11;100.00;100593.78;4168479;28;20421;-64
2021/12/29 04:58:00;;;;;;;19.13;4.65;;;13.90;99.90;;;13.15;100.00;100597.75;4168606;28;20151;-64
2021/12/29 05:00:05;;;;;;;17.58;4.00;;;13.90;99.90;;;13.13;100.00;100598.94;4168174;28;20563;-64
2021/12/29 05:02:05;;;;;;;;;;;13.90;99.90;;;13.15;100.00;100597.75;4170242;28;20550;-64
2021/12/29 05:04:06;;;;;;;17.83;5.13;;;13.90;99.90;;;13.17;100.00;100601.03;4169506;28;19909;-64
2021/12/29 05:08:29;;;;;;;20.08;4.03;;;14.00;99.90;;;13.17;100.00;100611.63;4167527;28;20030;-64
2021/12/29 05:10:30;;;;;;;13.75;3.58;;;13.90;99.90;;;13.15;100.00;100613.63;4169105;28;20096;-65
2021/12/29 05:12:31;;;;;;;15.80;3.67;;;13.90;99.90;;;13.10;100.00;100605.41;4169606;28;20021;-64
2021/12/29 05:14:32;;;;;;;23.50;4.75;;;13.90;99.90;;;13.16;100.00;100617.13;4169467;28;20439;-65
2021/12/29 05:16:33;;;;;;;18.00;5.20;;;13.90;99.90;;;13.14;100.00;100627.06;4169384;28;20060;-64
2021/12/29 05:18:36;;;;;;;16.48;3.90;;;14.00;99.90;;;13.13;100.00;100615.66;4169551;28;20026;-64
2021/12/29 05:20:37;;;;;;;22.70;4.40;;;13.90;99.90;;;13.13;100.00;100625.41;4169493;28;20040;-64
2021/12/29 05:22:38;;;;;;;26.17;5.20;;;13.90;99.90;;;13.10;100.00;100610.69;4154629;28;20069;-65
2021/12/29 05:24:39;;;;;;;21.00;4.13;;;13.90;99.90;;;13.08;100.00;100625.91;4156454;28;20036;-65
2021/12/29 05:26:40;;;;;;;20.67;4.53;;;13.90;99.90;;;13.08;100.00;100607.38;4169314;28;20519;-65
2021/12/29 05:28:41;;;;;;;15.75;4.22;;;13.80;99.90;;;13.09;100.00;100614.34;4158529;28;20077;-65
2021/12/29 05:30:42;;;;;;;18.95;4.22;;;14.00;99.90;;;13.10;100.00;100623.94;4165286;28;20432;-65
2021/12/29 05:32:43;;;;;;;15.43;4.13;;;13.90;99.90;;;13.10;100.00;100634.53;4169102;28;20013;-65
2021/12/29 05:34:44;;;;;;;20.20;5.03;;;13.80;99.90;;;13.08;100.00;100623.28;4169254;28;20030;-64
2021/12/29 05:36:45;;;;;;;20.70;4.82;;;13.90;99.90;;;13.09;100.00;100618.81;4169231;28;20049;-64
2021/12/29 05:38:46;;;;;;;21.10;4.47;;;13.90;99.90;;;13.07;100.00;100616.31;4169123;28;20043;-64
2021/12/29 05:40:52;;;;;;;21.17;4.15;;;13.90;99.90;;;13.08;100.00;100617.97;4169030;28;20025;-64
2021/12/29 05:42:55;;;;;;;22.80;4.70;;;13.80;99.90;;;13.04;100.00;100621.13;4169057;28;20041;-64
2021/12/29 05:44:55;;;;;;;16.00;5.78;;;13.80;99.90;;;13.05;100.00;100622.78;4168682;28;20025;-64
2021/12/29 05:46:56;;;;;;;23.48;5.78;;;13.90;99.90;;;13.03;100.00;100633.53;4169022;28;20401;-64
2021/12/29 05:48:57;;;;;;;21.40;4.72;;;13.80;99.90;;;13.05;100.00;100628.09;4168701;28;20084;-64
2021/12/29 05:50:58;;;;;;;25.45;7.03;;;13.90;99.90;;;13.03;100.00;100627.41;4168930;28;20025;-64
2021/12/29 05:53:01;;;;;;;25.73;6.13;;;13.80;99.90;;;13.00;100.00;100633.88;4168937;28;20084;-64
2021/12/29 05:55:02;;;;;;;18.25;4.50;;;13.80;99.90;;;13.00;100.00;100631.25;4155221;28;20061;-64
2021/12/29 05:57:04;;;;;;;18.08;4.93;;;13.80;99.90;;;13.03;100.00;100641.47;4166995;28;20032;-64
2021/12/29 05:59:06;;;;;;;26.50;6.53;;;13.80;99.90;;;13.02;100.00;100650.41;4168819;28;20033;-64
2021/12/29 06:01:09;;;;;;;26.08;5.88;;;13.80;99.90;;;13.02;100.00;100641.66;4168483;28;20026;-64
2021/12/29 06:03:10;;;;;;;21.05;4.38;;;13.80;99.90;;;13.03;100.00;100644.13;4168828;28;20026;-64
2021/12/29 06:05:11;;;;;;;18.95;4.85;;;13.80;99.90;;;13.02;100.00;100654.91;4164896;28;20121;-64
2021/12/29 06:07:13;;;;;;;32.80;6.68;;;13.80;99.90;;;13.00;100.00;100647.13;4152363;28;20037;-64
2021/12/29 06:09:14;;;;;;;31.35;6.63;;;13.80;99.90;;;13.03;100.00;100662.66;4152208;28;20030;-64
2021/12/29 06:11:15;;;;;;;23.50;5.10;;;13.80;99.90;;;13.02;100.00;100657.56;4150990;28;20030;-64
2021/12/29 06:13:16;;;;;;;24.35;5.25;;;13.80;99.90;;;13.00;100.00;100663.00;4154507;28;20018;-64
2021/12/29 06:15:17;;;;;;;22.70;4.88;;;13.80;99.90;;;13.03;100.00;100675.91;4161751;28;20030;-64
2021/12/29 06:17:18;;;;;;;27.23;6.38;;;13.80;99.90;;;13.02;100.00;100676.91;4152261;28;20026;-64
2021/12/29 06:19:19;;;;;;;22.88;4.53;;;13.90;99.90;;;13.02;100.00;100682.19;4152160;28;20041;-64
2021/12/29 06:21:20;;;;;;;21.10;5.47;;;13.80;99.90;;;13.06;100.00;100672.91;4154467;28;20030;-64
2021/12/29 06:23:21;;;;;;;17.80;4.45;;;13.80;99.90;;;13.05;100.00;100663.31;4160630;28;20034;-64
2021/12/29 06:25:23;;;;;;;25.33;7.28;;;13.70;99.90;;;13.03;100.00;100667.97;4160526;28;20396;-64
2021/12/29 06:27:24;;;;;;;29.25;6.53;;;13.80;99.90;;;13.02;100.00;100661.00;4167238;28;20033;-64
2021/12/29 06:29:25;;;;;;;27.23;5.35;;;13.80;99.90;;;13.01;100.00;100675.25;4168333;28;20108;-64
2021/12/29 06:31:26;;;;;;;22.75;6.28;;;13.70;99.90;;;12.99;100.00;100685.19;4168169;28;20025;-64
2021/12/29 06:33:27;;;;;;;19.05;5.63;;;13.80;99.90;;;12.98;100.00;100691.50;4168445;28;20044;-64
2021/12/29 06:35:28;;;;;;;24.75;6.10;;;13.80;99.90;;;13.01;100.00;100709.69;4168384;28;20025;-64
2021/12/29 06:37:29;;;;;;;27.02;6.30;;;13.70;99.90;;;13.00;100.00;100704.56;4168357;28;20082;-64
2021/12/29 06:39:30;;;;;;;27.45;5.30;;;13.70;99.90;;;12.99;100.00;100706.38;4161400;28;20033;-64
2021/12/29 06:41:31;;;;;;;18.70;5.60;;;13.80;99.90;;;12.98;100.00;100691.50;4150756;28;20433;-64
2021/12/29 06:43:32;;;;;;;27.17;6.38;;;13.70;99.90;;;12.99;100.00;100702.91;4150867;28;20032;-64
2021/12/29 06:45:33;;;;;;;26.17;5.28;;;13.80;99.90;;;12.96;100.00;100685.53;4166056;28;20053;-64
2021/12/29 06:47:34;;;;;;;23.65;5.18;;;13.80;99.90;;;12.96;100.00;100690.03;4161283;28;20038;-64
2021/12/29 06:49:35;;;;;;;12.80;3.70;;;13.80;99.90;;;12.95;100.00;100691.84;4160932;28;20497;-64
2021/12/29 06:51:36;;;;;;;22.95;4.43;;;13.70;99.90;;;12.93;100.00;100693.00;4154738;28;20022;-64
2021/12/29 06:53:37;;;;;;;19.20;4.70;;;13.70;99.90;;;12.97;100.00;100704.91;4167309;28;20523;-64
2021/12/29 06:55:39;;;;;;;16.83;4.05;;;13.80;99.90;;;12.95;100.00;100710.38;4161510;28;20033;-64
2021/12/29 06:57:40;;;;;;;18.27;5.15;;;13.80;99.90;;;12.93;100.00;100714.19;4150657;28;20032;-64
2021/12/29 06:59:42;;;;;;;19.52;3.88;;;13.70;99.90;;;13.00;100.00;100715.97;4162241;28;20057;-64
2021/12/29 07:01:43;;;;;;;12.95;3.50;;;13.70;99.90;;;12.96;100.00;100696.13;4167964;28;20028;-64
2021/12/29 07:03:44;;;;;;;16.00;3.40;;;13.70;99.90;;;12.97;100.00;100716.31;4161821;28;20121;-64
2021/12/29 07:05:45;;;;;;;19.42;5.40;;;13.70;99.90;;;12.95;100.00;100706.91;4158541;28;20137;-64
2021/12/29 07:07:49;;;;;;;15.35;4.93;;;13.70;99.90;;;12.97;100.00;100705.72;4156605;28;20076;-64
2021/12/29 07:09:50;;;;;;;14.50;3.65;;;13.70;99.90;;;12.95;100.00;100697.13;4151762;28;20493;-64
2021/12/29 07:11:52;;;;;;;13.27;3.58;;;13.70;99.90;;;12.96;100.00;100709.34;4151931;28;20089;-64
2021/12/29 07:13:52;;;;;;;14.82;3.00;;;13.70;99.90;;;12.98;100.00;100706.56;4151838;28;20544;-64
2021/12/29 07:15:53;;;;;;;13.43;3.28;;;13.80;99.90;;;12.97;100.00;100726.06;4162090;28;20025;-64
2021/12/29 07:17:54;;;;;;;16.08;3.83;;;13.70;99.90;;;12.98;100.00;100733.88;4153197;28;20033;-64
2021/12/29 07:19:55;;;;;;;9.93;2.42;;;13.70;99.90;;;12.95;100.00;100730.72;4151912;28;20030;-64
2021/12/29 07:21:59;;;;;;;8.95;2.60;;;13.70;99.90;;;12.98;100.00;100731.22;4159650;28;20061;-64
2021/12/29 07:24:00;;;;;;;;;;;13.70;99.90;;;12.91;100.00;100722.28;4156634;28;20022;-64
2021/12/29 07:26:01;;;;;;;16.02;3.60;;;13.70;99.90;;;12.89;100.00;100719.00;4151581;28;19913;-64
2021/12/29 07:28:03;;;;;;;6.95;3.30;;;13.70;99.90;;;12.95;100.00;100722.78;4151799;28;20034;-64
2021/12/29 07:30:05;;;;;;;12.65;3.85;;;13.70;99.90;;;12.96;100.00;100729.75;4158595;28;20022;-64
2021/12/29 07:32:06;;;;;;;10.38;3.08;;;13.70;99.90;;;12.93;100.00;100712.34;4156181;28;20033;-65
2021/12/29 07:34:07;;;;;;;13.52;3.30;;;13.70;99.90;;;12.94;100.00;100727.25;4153670;28;20034;-64
2021/12/29 07:36:08;;;;;;;15.68;3.33;;;13.70;99.90;;;12.94;100.00;100724.59;4158381;28;20508;-65
2021/12/29 07:38:09;;;;;;;10.00;3.97;;;13.70;99.90;;;12.98;100.00;100733.88;4162956;28;20037;-65
2021/12/29 07:40:10;;;;;;;12.50;4.70;;;13.70;99.90;;;12.95;100.00;100736.84;4154755;28;20571;-65
2021/12/29 07:42:11;;;;;;;15.27;4.20;;;13.70;99.90;;;13.00;100.00;100725.72;4167688;28;20159;-65
2021/12/29 07:44:13;;;;;;;16.58;5.13;;;13.70;99.90;;;12.92;100.00;100731.91;4166016;28;20029;-65
2021/12/29 07:46:14;;;;;;;14.80;4.10;;;13.70;99.90;;;12.93;100.00;100728.25;4161390;28;20029;-65
2021/12/29 07:48:17;;;;;;;14.80;5.60;;;14.00;99.90;;;12.97;100.00;100745.44;4159168;28;20052;-65
2021/12/29 07:50:19;;;;;;;13.57;3.90;;;13.70;99.90;;;12.92;100.00;100747.78;4154283;28;20405;-65
2021/12/29 07:52:20;;;;;;;12.82;3.85;;;13.70;99.90;;;12.92;100.00;100753.09;4158463;28;20081;-65
2021/12/29 07:54:22;;;;;;;14.77;4.55;;;13.70;99.90;;;12.93;100.00;100767.94;4162191;28;20037;-65
2021/12/29 07:56:24;;;;;;;8.75;3.53;;;13.70;99.90;;;12.89;100.00;100769.31;4154381;28;20036;-65
2021/12/29 07:58:25;;;;;;;13.98;3.10;;;13.70;99.90;;;12.92;100.00;100761.03;4154217;28;20034;-65
2021/12/29 08:00:26;;;;;;;18.70;4.35;;;13.70;99.90;;;12.92;100.00;100762.84;4154079;28;20033;-65
2021/12/29 08:02:28;;;;;;;14.77;3.42;;;13.70;99.90;;;12.89;100.00;100766.66;4156920;28;20037;-65
2021/12/29 08:04:29;;;;;;;10.75;3.30;;;13.70;99.90;;;12.89;100.00;100789.66;4157907;28;20116;-65
2021/12/29 08:06:30;;;;;;;11.93;4.47;;;13.70;99.90;;;12.88;100.00;100786.19;4153163;28;20549;-65
2021/12/29 08:08:31;;;;;;;13.38;4.30;;;13.70;99.90;;;12.91;100.00;100791.13;4158578;28;20030;-65
2021/12/29 08:10:34;;;;;;;10.95;3.88;;;13.70;99.90;;;12.95;100.00;100811.00;4170559;28;20579;-65
2021/12/29 08:12:35;;;;;;;14.07;4.45;;;13.70;99.90;;;12.95;100.00;100803.06;4170497;28;20032;-65
2021/12/29 08:14:35;;;;;;;11.25;5.43;;;13.70;99.90;;;12.92;100.00;100790.16;4154492;28;20034;-65
2021/12/29 08:16:37;;;;;;;10.13;3.22;;;13.70;99.90;;;12.94;100.00;100811.97;4156985;28;20057;-65
2021/12/29 08:18:38;;;;;;;18.00;5.55;;;13.70;99.90;;;12.96;100.00;100809.97;4160319;28;20564;-65
2021/12/29 08:20:40;;;;;;;15.43;4.53;;;13.70;99.90;;;12.97;100.00;100811.63;4169218;28;20033;-65
2021/12/29 08:22:41;;;;;;;10.20;3.83;;;13.70;99.90;;;12.91;100.00;100807.03;4169164;28;20077;-65